Time;durP1;ratioP1;P1;durP2;ratioP2;P2;SDS_P1;SDS_P2;PMS_P1;PMS_P2;Temp;Humidity;BMP_temperature;BMP_pressure;BME280_temperature;BME280_humidity;BME280_pressure;Samples;Min_cycle;Max_cycle;Signal;HPM_P1;HPM_P2
2022/02/09 00:02:23;;;;;;;2.70;2.50;;;5.60;92.60;;;;;;5062824;28;21741;-77
2022/02/09 00:05:04;;;;;;;2.38;2.28;;;5.60;92.90;;;;;;5060432;28;20198;-78
2022/02/09 00:07:38;;;;;;;2.50;2.40;;;5.50;93.00;;;;;;5061775;28;20221;-75
2022/02/09 00:10:07;;;;;;;2.33;2.22;;;5.50;93.20;;;;;;5062564;28;20312;-79
2022/02/09 00:12:39;;;;;;;2.90;2.75;;;5.40;93.20;;;;;;5063500;28;20222;-79
2022/02/09 00:15:20;;;;;;;2.45;2.35;;;5.40;93.30;;;;;;5067363;28;20695;-81
2022/02/09 00:17:54;;;;;;;2.42;2.20;;;5.40;93.40;;;;;;5062034;28;20679;-77
2022/02/09 00:34:33;;;;;;;2.90;2.80;;;5.30;93.80;;;;;;5039436;28;20667;-80
2022/02/09 00:40:09;;;;;;;2.50;2.40;;;5.40;93.60;;;;;;5041834;28;20286;-81
2022/02/09 00:42:58;;;;;;;3.05;2.85;;;5.30;93.70;;;;;;5040008;28;20222;-78
2022/02/09 00:59:53;;;;;;;2.58;2.47;;;5.00;94.90;;;;;;5032538;28;20226;-78
2022/02/09 01:38:20;;;;;;;2.30;2.20;;;4.90;95.70;;;;;;5029661;28;20238;-78
2022/02/09 01:57:17;;;;;;;2.35;2.25;;;5.00;96.50;;;;;;5016559;28;20227;-78
2022/02/09 01:59:46;;;;;;;2.78;2.67;;;5.00;96.00;;;;;;5008186;28;20226;-76
2022/02/09 02:02:15;;;;;;;2.50;2.40;;;5.00;96.10;;;;;;5006307;28;20597;-77
2022/02/09 02:04:45;;;;;;;2.47;2.35;;;5.00;96.20;;;;;;5019338;28;20216;-76
2022/02/09 02:07:23;;;;;;;2.45;2.35;;;5.00;96.30;;;;;;5008396;28;20655;-77
2022/02/09 02:09:50;;;;;;;2.40;2.30;;;5.00;96.50;;;;;;5009523;28;20424;-76
2022/02/09 02:12:20;;;;;;;2.45;2.35;;;4.90;96.80;;;;;;5009537;28;20648;-78
2022/02/09 02:14:55;;;;;;;2.67;2.58;;;4.80;97.00;;;;;;5005540;28;20216;-76
2022/02/09 02:17:31;;;;;;;2.55;2.45;;;4.80;97.10;;;;;;5006072;28;20630;-77
2022/02/09 02:20:09;;;;;;;2.45;2.35;;;4.70;97.00;;;;;;5006885;28;20302;-77
2022/02/09 02:22:48;;;;;;;2.60;2.50;;;4.80;97.20;;;;;;5007228;28;20220;-76
2022/02/09 02:31:09;;;;;;;2.58;2.47;;;4.80;97.20;;;;;;5007757;28;20223;-76
2022/02/09 02:36:37;;;;;;;2.60;2.40;;;4.70;97.00;;;;;;5006314;28;20207;-77
2022/02/09 02:39:32;;;;;;;2.70;2.60;;;4.80;97.20;;;;;;5007884;28;20228;-78
2022/02/09 02:56:42;;;;;;;2.80;2.70;;;4.80;97.20;;;;;;5026376;28;20221;-79
2022/02/09 03:12:38;;;;;;;2.20;2.10;;;4.60;98.10;;;;;;4997692;28;20199;-78
2022/02/09 03:15:21;;;;;;;2.60;2.50;;;4.60;98.10;;;;;;5013022;28;20235;-78
2022/02/09 03:18:01;;;;;;;2.38;2.28;;;4.60;98.20;;;;;;5024472;28;20211;-78
2022/02/09 03:20:36;;;;;;;2.65;2.55;;;4.60;98.40;;;;;;5024274;28;20251;-77
2022/02/09 03:23:15;;;;;;;2.80;2.70;;;4.60;98.60;;;;;;5022634;28;20231;-78
2022/02/09 03:25:54;;;;;;;2.53;2.42;;;4.50;98.70;;;;;;5025572;28;20223;-78
2022/02/09 03:31:26;;;;;;;2.78;2.67;;;4.50;98.80;;;;;;5005665;28;20732;-79
2022/02/09 03:42:36;;;;;;;2.80;2.70;;;4.40;98.80;;;;;;5022200;28;20780;-74
2022/02/09 03:47:58;;;;;;;2.50;2.40;;;4.30;99.20;;;;;;4998117;28;20282;-78
2022/02/09 03:50:42;;;;;;;2.97;2.88;;;4.20;99.50;;;;;;5010726;28;20278;-76
2022/02/09 03:53:32;;;;;;;3.05;2.78;;;4.20;99.60;;;;;;5008435;28;20850;-75
2022/02/09 03:56:27;;;;;;;2.70;2.60;;;4.20;99.70;;;;;;5025253;28;20215;-76
2022/02/09 03:58:54;;;;;;;2.47;2.28;;;4.20;99.70;;;;;;5020960;28;20202;-79
2022/02/09 04:01:27;;;;;;;2.75;2.55;;;4.20;99.80;;;;;;5020919;28;20204;-76
2022/02/09 04:03:54;;;;;;;2.50;2.40;;;4.20;99.80;;;;;;5041586;22;20639;-70
2022/02/09 04:06:21;;;;;;;2.60;2.50;;;4.20;99.80;;;;;;5023515;28;20659;-68
2022/02/09 04:08:53;;;;;;;2.92;2.83;;;4.20;99.90;;;;;;5027989;28;20198;-68
2022/02/09 04:11:26;;;;;;;2.40;2.30;;;4.20;99.90;;;;;;5028609;28;20270;-68
2022/02/09 04:13:57;;;;;;;2.72;2.63;;;4.20;99.90;;;;;;5028435;28;20603;-67
2022/02/09 04:16:39;;;;;;;2.67;2.58;;;4.20;99.90;;;;;;5026559;28;20223;-67
2022/02/09 04:19:15;;;;;;;2.90;2.80;;;4.10;99.90;;;;;;5025696;28;20671;-68
2022/02/09 04:38:12;;;;;;;3.03;2.85;;;4.10;99.90;;;;;;5027552;28;20287;-67
2022/02/09 04:46:48;;;;;;;2.67;2.58;;;4.00;99.90;;;;;;5023372;28;20665;-67
2022/02/09 04:49:39;;;;;;;3.28;3.08;;;4.00;99.90;;;;;;5025690;28;20204;-68
2022/02/09 04:52:21;;;;;;;2.72;2.63;;;4.00;99.90;;;;;;5027310;28;20207;-67
2022/02/09 04:54:53;;;;;;;2.70;2.60;;;4.00;99.90;;;;;;5029637;28;20600;-68
2022/02/09 04:57:31;;;;;;;2.33;2.22;;;4.00;99.90;;;;;;5027604;28;20251;-68
2022/02/09 05:00:14;;;;;;;2.80;2.70;;;4.00;99.90;;;;;;5027016;28;20565;-68
2022/02/09 05:24:43;;;;;;;3.08;2.97;;;4.20;99.90;;;;;;5031547;28;20342;-67
2022/02/09 05:27:20;;;;;;;3.13;2.92;;;4.20;99.90;;;;;;5031438;28;20302;-67
2022/02/09 05:29:47;;;;;;;3.08;2.90;;;4.30;99.90;;;;;;5031609;28;20196;-68
2022/02/09 05:32:14;;;;;;;3.05;2.90;;;4.20;99.90;;;;;;5035519;28;20343;-67
2022/02/09 05:34:42;;;;;;;2.88;2.78;;;4.20;99.90;;;;;;5030895;28;20230;-67
2022/02/09 05:37:10;;;;;;;2.90;2.80;;;4.10;99.90;;;;;;5032282;28;20219;-68
2022/02/09 05:39:37;;;;;;;2.67;2.58;;;4.00;99.90;;;;;;5031349;28;20200;-68
2022/02/09 05:42:08;;;;;;;2.63;2.53;;;4.00;99.90;;;;;;5028892;28;20227;-68
2022/02/09 05:44:36;;;;;;;2.70;2.60;;;3.90;99.90;;;;;;5035650;28;20733;-67
2022/02/09 05:49:59;;;;;;;3.30;3.10;;;3.90;99.90;;;;;;5035824;28;20199;-67
2022/02/09 05:52:32;;;;;;;3.17;2.97;;;3.90;99.90;;;;;;5032154;28;20298;-67
2022/02/09 05:55:24;;;;;;;3.35;3.08;;;3.80;99.90;;;;;;5030442;28;20223;-67
2022/02/09 05:57:54;;;;;;;3.05;2.95;;;3.80;99.90;;;;;;5030472;28;20242;-67
2022/02/09 06:00:21;;;;;;;2.92;2.72;;;3.80;99.90;;;;;;5027779;28;20200;-67
2022/02/09 06:02:49;;;;;;;2.95;2.85;;;3.80;99.90;;;;;;5032776;28;20307;-68
2022/02/09 06:05:17;;;;;;;2.90;2.80;;;3.80;99.90;;;;;;5033951;28;20223;-67
2022/02/09 06:07:45;;;;;;;3.17;3.08;;;3.80;99.90;;;;;;5032546;28;20573;-67
2022/02/09 06:10:18;;;;;;;2.67;2.58;;;3.80;99.90;;;;;;5033751;28;20196;-67
2022/02/09 06:12:50;;;;;;;2.38;2.28;;;3.80;99.90;;;;;;5031538;28;20250;-68
2022/02/09 06:20:51;;;;;;;2.72;2.63;;;3.60;99.90;;;;;;5032872;28;20246;-67
2022/02/09 06:23:20;;;;;;;2.80;2.70;;;3.60;99.90;;;;;;5042649;28;20582;-67
2022/02/09 06:25:47;;;;;;;3.42;3.22;;;3.50;99.90;;;;;;5047703;28;20600;-68
2022/02/09 06:28:14;;;;;;;3.05;2.85;;;3.50;99.90;;;;;;5049542;28;20219;-68
2022/02/09 06:30:42;;;;;;;3.05;2.95;;;3.50;99.90;;;;;;5038121;28;20203;-67
2022/02/09 06:33:09;;;;;;;2.53;2.42;;;3.50;99.90;;;;;;5028911;28;20722;-68
2022/02/09 06:35:36;;;;;;;2.70;2.60;;;3.50;99.90;;;;;;5030524;28;20664;-67
2022/02/09 06:38:03;;;;;;;3.15;2.97;;;3.50;99.90;;;;;;5026082;28;20215;-68
2022/02/09 06:40:32;;;;;;;2.72;2.63;;;3.50;99.90;;;;;;5026570;28;20458;-67
2022/02/09 06:42:59;;;;;;;2.92;2.83;;;3.50;99.90;;;;;;5024575;28;20717;-67
2022/02/09 06:45:29;;;;;;;2.83;2.72;;;3.50;99.90;;;;;;5021874;28;20195;-67
2022/02/09 06:47:56;;;;;;;4.38;3.97;;;3.60;99.90;;;;;;5019509;28;20215;-69
2022/02/09 06:50:30;;;;;;;3.75;3.45;;;3.60;99.90;;;;;;5024677;28;20724;-69
2022/02/09 06:53:10;;;;;;;3.65;3.45;;;3.60;99.90;;;;;;5021933;28;20242;-69
2022/02/09 06:55:44;;;;;;;3.40;3.20;;;3.60;99.90;;;;;;5030049;28;20219;-69
2022/02/09 06:58:20;;;;;;;3.28;3.08;;;3.60;99.90;;;;;;5026192;28;20779;-69
2022/02/09 07:00:47;;;;;;;3.25;3.05;;;3.60;99.90;;;;;;5024795;28;20202;-69
2022/02/09 07:03:15;;;;;;;3.50;3.30;;;3.70;99.90;;;;;;5025690;28;20231;-69
2022/02/09 07:05:42;;;;;;;3.50;3.30;;;3.70;99.90;;;;;;5029783;28;20202;-69
2022/02/09 07:08:09;;;;;;;3.30;3.10;;;3.70;99.90;;;;;;5022669;28;20223;-69
2022/02/09 07:10:37;;;;;;;3.80;3.60;;;3.70;99.90;;;;;;5026862;28;20199;-69
2022/02/09 07:13:05;;;;;;;3.50;3.30;;;3.70;99.90;;;;;;5028333;28;20273;-69
2022/02/09 07:15:38;;;;;;;3.13;2.92;;;3.60;99.90;;;;;;5025681;28;20586;-70
2022/02/09 07:18:09;;;;;;;2.85;2.72;;;3.60;99.90;;;;;;5029881;28;20298;-69
2022/02/09 07:20:44;;;;;;;3.08;2.95;;;3.60;99.90;;;;;;5026301;28;20188;-70
2022/02/09 07:23:20;;;;;;;2.85;2.70;;;3.60;99.90;;;;;;5031991;28;20229;-70
2022/02/09 07:26:01;;;;;;;3.25;3.05;;;3.60;99.90;;;;;;5018583;28;20191;-70
2022/02/09 07:28:28;;;;;;;2.85;2.75;;;3.60;99.90;;;;;;5024363;28;20223;-70
2022/02/09 07:30:55;;;;;;;2.90;2.80;;;3.60;99.90;;;;;;5030440;28;20198;-71
2022/02/09 07:33:22;;;;;;;3.30;3.15;;;3.60;99.90;;;;;;5029619;28;20234;-70
2022/02/09 07:35:49;;;;;;;3.30;3.10;;;3.80;99.90;;;;;;5028777;28;20235;-70
2022/02/09 07:38:16;;;;;;;2.78;2.60;;;4.80;99.90;;;;;;5023679;28;20215;-70
2022/02/09 07:40:44;;;;;;;3.08;2.88;;;6.00;99.90;;;;;;5032230;28;20196;-70
2022/02/09 07:43:19;;;;;;;3.35;3.15;;;7.10;99.90;;;;;;5028716;28;20595;-70
2022/02/09 07:46:03;;;;;;;2.80;2.70;;;7.90;99.90;;;;;;5028805;28;20223;-70
2022/02/09 07:48:52;;;;;;;3.17;2.97;;;8.50;99.90;;;;;;5027641;28;20215;-72
2022/02/09 07:51:40;;;;;;;3.38;3.17;;;9.30;99.90;;;;;;5031556;28;20207;-74
2022/02/09 07:54:08;;;;;;;4.00;3.10;;;10.00;99.00;;;;;;5024872;28;20219;-72
2022/02/09 07:56:40;;;;;;;2.60;2.50;;;10.60;98.70;;;;;;5023480;28;20192;-73
2022/02/09 07:59:10;;;;;;;2.70;2.50;;;10.80;97.30;;;;;;5026945;28;20596;-72
2022/02/09 08:01:37;;;;;;;2.90;2.70;;;11.10;97.40;;;;;;5029071;28;20277;-73
2022/02/09 08:04:04;;;;;;;2.70;2.50;;;11.40;97.30;;;;;;5023466;28;20650;-72
2022/02/09 08:06:32;;;;;;;2.50;2.40;;;11.50;96.60;;;;;;5031158;28;20196;-76
2022/02/09 08:09:01;;;;;;;2.50;2.30;;;11.70;96.50;;;;;;5026572;28;20218;-72
2022/02/09 08:11:35;;;;;;;3.03;2.75;;;12.20;95.70;;;;;;5027249;28;20199;-72
2022/02/09 08:28:21;;;;;;;2.80;2.60;;;13.40;92.60;;;;;;5025444;28;20225;-71
2022/02/09 08:31:01;;;;;;;3.33;3.03;;;13.40;92.80;;;;;;5025532;28;20207;-74
2022/02/09 08:33:29;;;;;;;3.55;3.25;;;13.40;92.60;;;;;;5027692;28;20652;-71
2022/02/09 08:35:57;;;;;;;2.53;2.33;;;13.50;92.50;;;;;;5025106;28;20284;-71
2022/02/09 08:38:28;;;;;;;5.63;2.78;;;13.60;92.00;;;;;;5022803;28;20265;-71
2022/02/09 08:40:56;;;;;;;2.60;2.40;;;13.60;92.00;;;;;;5030615;28;20506;-72
2022/02/09 08:43:23;;;;;;;3.03;2.72;;;13.70;91.90;;;;;;5027274;28;20223;-71
2022/02/09 08:45:51;;;;;;;4.00;2.55;;;13.70;91.50;;;;;;5030247;28;20258;-73
2022/02/09 08:48:20;;;;;;;2.95;2.63;;;13.80;91.70;;;;;;5032113;28;20228;-74
2022/02/09 08:50:49;;;;;;;3.00;2.80;;;13.70;91.40;;;;;;5035155;28;20679;-72
2022/02/09 08:53:17;;;;;;;3.05;2.72;;;13.40;91.90;;;;;;5033260;28;20301;-72
2022/02/09 08:55:44;;;;;;;2.80;2.60;;;13.40;92.50;;;;;;5030302;28;20254;-71
2022/02/09 08:58:13;;;;;;;3.50;3.20;;;13.70;92.90;;;;;;5024154;28;20222;-74
2022/02/09 09:00:40;;;;;;;3.10;2.80;;;13.90;92.10;;;;;;5032677;28;20192;-74
2022/02/09 09:03:15;;;;;;;3.65;2.80;;;13.90;92.00;;;;;;5033263;28;20310;-71
2022/02/09 09:05:46;;;;;;;3.67;2.80;;;14.10;91.70;;;;;;5033634;28;20195;-72
2022/02/09 09:11:21;;;;;;;2.60;2.28;;;14.80;90.30;;;;;;5019643;28;20214;-71
2022/02/09 09:58:46;;;;;;;2.65;2.45;;;16.40;87.20;;;;;;4998924;28;20258;-71
2022/02/09 10:01:23;;;;;;;3.40;3.08;;;16.40;86.80;;;;;;5028532;28;20200;-72
2022/02/09 10:04:03;;;;;;;3.00;2.70;;;16.70;86.20;;;;;;5041063;23;21544;-72
2022/02/09 10:35:27;;;;;;;2.90;2.35;;;16.00;82.70;;;;;;5019251;28;20671;-76
2022/02/09 10:37:56;;;;;;;2.58;2.20;;;16.30;82.20;;;;;;5022148;28;20198;-76
2022/02/09 10:40:33;;;;;;;2.40;2.20;;;16.20;82.40;;;;;;5024059;28;20195;-76
2022/02/09 10:43:02;;;;;;;3.85;2.58;;;16.50;81.30;;;;;;5021939;28;20195;-76
2022/02/09 10:45:34;;;;;;;2.83;2.08;;;16.00;81.40;;;;;;5026233;28;20694;-77
2022/02/09 10:48:05;;;;;;;2.10;2.00;;;16.10;82.00;;;;;;5022616;28;20198;-76
2022/02/09 10:50:34;;;;;;;2.55;2.35;;;16.50;80.90;;;;;;5026079;28;20200;-74
2022/02/09 10:53:04;;;;;;;2.17;2.03;;;16.50;81.70;;;;;;5020975;28;20176;-75
2022/02/09 10:55:36;;;;;;;2.42;2.13;;;16.70;81.60;;;;;;5024572;28;20219;-76
2022/02/09 10:58:09;;;;;;;2.63;2.42;;;16.70;81.30;;;;;;5019637;28;20566;-75
2022/02/09 11:00:43;;;;;;;2.08;1.98;;;16.70;81.80;;;;;;5025549;28;20192;-75
2022/02/09 11:03:14;;;;;;;1.95;1.85;;;16.50;81.00;;;;;;5026288;28;20198;-76
2022/02/09 11:05:43;;;;;;;2.20;2.00;;;16.30;80.70;;;;;;5028006;28;20234;-76
2022/02/09 11:08:11;;;;;;;2.00;1.90;;;16.10;81.90;;;;;;5017288;28;20215;-76
2022/02/09 11:10:38;;;;;;;2.10;2.00;;;16.20;81.10;;;;;;5016724;28;20203;-76
2022/02/09 11:13:09;;;;;;;3.15;2.28;;;16.30;80.80;;;;;;5015958;28;20204;-76
2022/02/09 11:15:38;;;;;;;2.45;2.00;;;16.30;80.40;;;;;;5023678;28;20310;-77
2022/02/09 11:18:08;;;;;;;2.78;2.30;;;16.30;82.00;;;;;;5020354;28;20255;-76
2022/02/09 11:21:09;;;;;;;4.10;2.10;;;16.30;79.90;;;;;;5020654;28;20655;-77
2022/02/09 11:23:40;;;;;;;2.28;1.92;;;16.20;79.20;;;;;;5021482;28;20617;-77
2022/02/09 11:26:30;;;;;;;2.35;1.90;;;16.10;81.00;;;;;;5021706;28;20243;-76
2022/02/09 11:29:23;;;;;;;2.15;1.95;;;15.80;80.70;;;;;;5010327;28;20207;-76
2022/02/09 11:32:13;;;;;;;1.88;1.77;;;15.80;79.60;;;;;;5022938;28;20220;-77
2022/02/09 11:43:47;;;;;;;3.35;2.08;;;16.70;79.50;;;;;;5003037;28;20195;-77
2022/02/09 11:46:45;;;;;;;2.20;2.00;;;16.40;79.60;;;;;;5022921;28;20245;-76
2022/02/09 11:55:03;;;;;;;4.85;2.35;;;16.30;79.50;;;;;;5020451;28;20222;-77
2022/02/09 12:00:33;;;;;;;2.50;1.80;;;16.20;80.10;;;;;;5013538;28;20612;-76
2022/02/09 12:08:52;;;;;;;2.45;2.00;;;15.90;80.50;;;;;;5034259;28;20214;-76
2022/02/09 12:11:50;;;;;;;2.95;1.90;;;15.70;78.80;;;;;;5027642;28;20223;-76
2022/02/09 12:14:52;;;;;;;2.95;2.20;;;15.40;80.10;;;;;;5018874;28;20246;-75
2022/02/09 12:17:48;;;;;;;2.58;1.95;;;15.40;80.40;;;;;;5022483;28;20215;-74
2022/02/09 12:20:21;;;;;;;2.30;2.10;;;15.50;81.00;;;;;;5021996;28;20218;-75
2022/02/09 12:23:05;;;;;;;1.98;1.88;;;15.60;80.30;;;;;;5015760;28;20298;-75
2022/02/09 12:25:42;;;;;;;2.08;1.85;;;15.50;80.10;;;;;;5023511;28;20678;-74
2022/02/09 12:28:15;;;;;;;3.10;1.95;;;15.50;80.50;;;;;;5014201;28;20305;-75
2022/02/09 12:30:44;;;;;;;2.13;2.03;;;15.60;79.90;;;;;;5019615;28;20196;-74
2022/02/09 12:33:19;;;;;;;3.47;1.80;;;15.80;80.10;;;;;;5000890;28;20232;-74
2022/02/09 12:35:46;;;;;;;2.33;1.80;;;15.80;79.80;;;;;;5000988;28;20207;-75
2022/02/09 12:38:13;;;;;;;2.35;1.80;;;15.80;79.40;;;;;;4998737;28;20575;-74
2022/02/09 12:40:40;;;;;;;2.03;1.92;;;15.80;78.60;;;;;;5002233;28;20394;-74
2022/02/09 12:43:12;;;;;;;1.83;1.73;;;15.50;78.60;;;;;;4999741;28;20224;-74
2022/02/09 12:45:40;;;;;;;1.95;1.80;;;15.30;79.20;;;;;;4998670;28;20232;-74
2022/02/09 12:48:11;;;;;;;1.90;1.70;;;15.60;79.00;;;;;;4998849;28;20243;-72
2022/02/09 12:50:40;;;;;;;1.77;1.67;;;15.60;78.50;;;;;;5010203;28;20205;-74
2022/02/09 12:53:08;;;;;;;2.08;1.98;;;15.60;78.20;;;;;;5012566;28;20247;-73
2022/02/09 12:55:37;;;;;;;2.03;1.90;;;15.50;78.20;;;;;;5000399;28;20472;-75
2022/02/09 12:58:07;;;;;;;1.80;1.70;;;15.60;78.00;;;;;;4996986;28;20232;-74
2022/02/09 13:00:38;;;;;;;1.88;1.75;;;15.80;77.00;;;;;;5000596;28;20597;-74
2022/02/09 13:03:07;;;;;;;2.65;1.52;;;15.70;77.40;;;;;;4998567;28;20243;-74
2022/02/09 13:05:43;;;;;;;1.70;1.60;;;15.60;76.60;;;;;;5000630;28;20282;-74
2022/02/09 13:08:11;;;;;;;1.63;1.52;;;15.80;76.70;;;;;;4998371;28;20232;-75
2022/02/09 13:10:39;;;;;;;1.98;1.75;;;15.90;75.50;;;;;;5001734;28;20290;-74
2022/02/09 13:13:11;;;;;;;2.45;1.50;;;15.70;75.40;;;;;;5001988;28;20340;-73
2022/02/09 13:15:45;;;;;;;1.70;1.60;;;15.50;76.40;;;;;;5001170;28;20217;-73
2022/02/09 13:18:37;;;;;;;1.55;1.45;;;15.40;76.50;;;;;;4995535;28;20231;-73
2022/02/09 13:25:14;;;;;;;1.52;1.42;;;15.30;75.30;;;;;;5094069;27;21096;-72
2022/02/09 14:12:39;;;;;;;1.85;1.70;;;14.90;76.90;;;;;;5009030;28;20227;-72
2022/02/09 14:15:34;;;;;;;1.50;1.40;;;14.90;77.20;;;;;;5015086;28;20800;-72
2022/02/09 14:18:28;;;;;;;1.50;1.40;;;15.00;77.20;;;;;;5044864;28;20208;-73
2022/02/09 14:33:28;;;;;;;1.70;1.60;;;15.00;78.10;;;;;;5016536;28;20355;-73
2022/02/09 14:52:18;;;;;;;1.60;1.50;;;14.60;78.60;;;;;;5038356;28;20203;-73
2022/02/09 14:54:49;;;;;;;1.63;1.52;;;14.20;79.30;;;;;;5036579;28;20219;-71
2022/02/09 14:57:19;;;;;;;1.67;1.58;;;13.90;79.90;;;;;;5040454;28;20795;-72
2022/02/09 14:59:53;;;;;;;1.60;1.50;;;13.70;80.30;;;;;;5039305;28;20705;-73
2022/02/09 15:02:34;;;;;;;1.73;1.42;;;13.50;80.70;;;;;;5036936;28;20198;-73
2022/02/09 15:05:41;;;;;;;1.70;1.60;;;13.20;81.20;;;;;;5040231;28;20272;-73
2022/02/09 15:08:19;;;;;;;3.22;2.92;;;13.10;81.40;;;;;;5042536;28;20204;-73
2022/02/09 15:10:52;;;;;;;2.40;2.20;;;12.90;82.20;;;;;;5022210;28;20220;-73
2022/02/09 15:13:33;;;;;;;2.20;2.00;;;12.80;83.40;;;;;;5018397;28;20265;-72
2022/02/09 15:16:08;;;;;;;2.22;2.08;;;12.90;83.90;;;;;;5031854;28;20694;-73
2022/02/09 15:21:37;;;;;;;2.03;1.77;;;12.70;84.00;;;;;;5018050;28;20932;-74
2022/02/09 15:24:05;;;;;;;1.45;1.35;;;12.60;84.50;;;;;;5020552;28;20299;-73
2022/02/09 15:26:34;;;;;;;1.60;1.50;;;12.50;84.60;;;;;;5017555;28;20265;-73
2022/02/09 15:29:01;;;;;;;1.60;1.50;;;12.50;84.90;;;;;;5019641;28;20195;-72
2022/02/09 15:31:35;;;;;;;2.60;1.58;;;12.40;85.00;;;;;;5015863;28;20255;-72
2022/02/09 15:34:12;;;;;;;1.92;1.70;;;12.40;85.30;;;;;;5031132;28;20763;-73
2022/02/09 15:36:53;;;;;;;1.90;1.80;;;12.20;85.90;;;;;;5020263;28;20199;-72
2022/02/09 15:39:22;;;;;;;1.77;1.67;;;12.10;86.30;;;;;;5021434;28;20227;-74
2022/02/09 15:42:04;;;;;;;1.52;1.42;;;12.10;86.80;;;;;;5041018;28;20628;-73
2022/02/09 15:58:47;;;;;;;1.63;1.52;;;11.50;88.20;;;;;;5020695;28;20283;-73
2022/02/09 16:09:22;;;;;;;1.77;1.67;;;11.10;89.40;;;;;;4981484;28;20191;-74
2022/02/09 16:23:09;;;;;;;2.42;2.22;;;10.70;89.80;;;;;;5040848;28;20581;-73
2022/02/09 16:25:54;;;;;;;2.05;1.95;;;10.60;90.10;;;;;;5039452;28;20724;-75
2022/02/09 16:45:03;;;;;;;2.30;2.10;;;10.30;90.40;;;;;;5042052;28;20754;-73
2022/02/09 16:50:24;;;;;;;3.00;2.80;;;10.20;90.70;;;;;;5034387;28;20288;-73
2022/02/09 16:52:57;;;;;;;3.53;3.22;;;10.20;90.70;;;;;;5037641;28;20357;-73
2022/02/09 16:55:52;;;;;;;4.28;3.75;;;10.10;90.80;;;;;;5036662;28;20247;-73
2022/02/09 17:20:38;;;;;;;3.85;3.55;;;9.50;91.60;;;;;;5037574;28;20221;-75
2022/02/09 17:23:05;;;;;;;3.90;3.60;;;9.40;91.70;;;;;;5037078;28;20215;-72
2022/02/09 17:25:32;;;;;;;4.10;3.70;;;9.40;91.70;;;;;;5036983;28;20614;-75
2022/02/09 17:28:00;;;;;;;4.40;4.00;;;9.40;91.70;;;;;;5033996;28;20210;-73
2022/02/09 17:30:57;;;;;;;3.85;3.55;;;9.30;91.70;;;;;;5039391;28;20218;-77
2022/02/09 17:33:38;;;;;;;4.15;3.85;;;9.30;91.80;;;;;;5038806;28;20187;-73
2022/02/09 17:36:12;;;;;;;4.57;4.15;;;9.20;91.90;;;;;;5037086;28;20246;-74
2022/02/09 17:38:46;;;;;;;5.70;4.68;;;9.20;92.00;;;;;;5035570;28;20203;-76
2022/02/09 17:57:46;;;;;;;6.88;6.00;;;9.00;92.40;;;;;;5035964;28;20245;-72
2022/02/09 18:00:16;;;;;;;6.78;5.57;;;9.00;92.60;;;;;;5038056;28;20219;-72
2022/02/09 18:02:46;;;;;;;7.28;5.55;;;9.00;92.50;;;;;;5035067;28;20203;-72
2022/02/09 18:05:19;;;;;;;5.40;4.90;;;8.90;92.70;;;;;;5038002;28;20693;-73
2022/02/09 18:07:51;;;;;;;5.90;5.30;;;8.90;92.70;;;;;;5031428;28;20191;-76
2022/02/09 18:10:26;;;;;;;6.60;5.43;;;8.90;92.60;;;;;;5032903;28;20793;-76
2022/02/09 18:29:42;;;;;;;9.38;8.32;;;8.70;93.40;;;;;;5095170;28;20441;-75
2022/02/09 18:32:38;;;;;;;7.57;6.88;;;8.60;93.50;;;;;;5075360;28;20295;-75
2022/02/09 18:43:25;;;;;;;5.75;5.25;;;8.40;93.90;;;;;;5060713;28;20663;-76
2022/02/09 18:45:58;;;;;;;5.25;4.55;;;8.40;93.90;;;;;;5094841;28;20977;-74
2022/02/09 18:48:48;;;;;;;5.30;4.80;;;8.40;94.00;;;;;;5082384;28;20205;-76
2022/02/09 18:57:02;;;;;;;4.97;4.47;;;8.40;94.40;;;;;;5079193;28;20247;-72
2022/02/09 18:59:49;;;;;;;4.70;3.75;;;8.30;94.50;;;;;;5080188;28;20210;-75
2022/02/09 19:05:28;;;;;;;4.13;3.72;;;8.30;94.50;;;;;;5041640;28;20361;-74
2022/02/09 19:28:05;;;;;;;3.97;3.67;;;8.10;94.80;;;;;;5066487;28;20253;-72
2022/02/09 19:33:28;;;;;;;4.03;3.67;;;8.10;94.70;;;;;;5085813;28;20671;-76
2022/02/09 19:46:57;;;;;;;3.88;3.58;;;7.90;95.10;;;;;;5073716;28;20707;-72
2022/02/09 19:49:44;;;;;;;3.58;3.33;;;7.90;95.20;;;;;;5067829;28;20205;-72
2022/02/09 19:52:17;;;;;;;3.80;3.50;;;7.80;95.30;;;;;;5064439;28;20214;-72
2022/02/09 19:55:02;;;;;;;4.32;3.28;;;7.80;95.30;;;;;;5067459;28;20580;-72
2022/02/09 19:57:33;;;;;;;4.32;3.92;;;7.80;95.40;;;;;;5064771;28;20222;-72
2022/02/09 20:00:01;;;;;;;5.75;4.80;;;7.70;95.50;;;;;;5067884;28;20203;-72
2022/02/09 20:02:28;;;;;;;4.32;4.03;;;7.70;95.60;;;;;;5067880;28;20229;-74
2022/02/09 20:04:57;;;;;;;4.47;4.07;;;7.60;95.70;;;;;;5067931;28;20653;-76
2022/02/09 20:07:25;;;;;;;5.40;4.90;;;7.50;95.80;;;;;;5067288;28;20260;-72
2022/02/09 20:09:53;;;;;;;4.95;4.45;;;7.50;95.80;;;;;;5066661;28;20581;-73
2022/02/09 20:12:20;;;;;;;5.88;5.25;;;7.40;95.80;;;;;;5064707;28;20273;-73
2022/02/09 20:14:48;;;;;;;5.15;4.65;;;7.30;96.00;;;;;;5070504;28;20218;-74
2022/02/09 20:17:16;;;;;;;5.07;4.45;;;7.30;96.20;;;;;;5077428;28;20244;-78
2022/02/09 20:19:52;;;;;;;4.72;4.28;;;7.30;96.30;;;;;;5079297;28;20228;-73
2022/02/09 20:22:19;;;;;;;4.47;4.07;;;7.30;96.50;;;;;;5080481;28;20220;-75
2022/02/09 20:24:46;;;;;;;4.45;4.05;;;7.20;96.50;;;;;;5074751;28;20218;-72
2022/02/09 20:27:19;;;;;;;4.15;3.80;;;7.20;96.70;;;;;;5068614;28;20237;-73
2022/02/09 20:29:47;;;;;;;4.85;4.28;;;7.20;96.70;;;;;;5066662;28;20194;-74
2022/02/09 20:32:19;;;;;;;4.93;4.43;;;7.20;96.70;;;;;;5068546;28;20218;-74
2022/02/09 20:34:52;;;;;;;5.00;4.50;;;7.20;96.80;;;;;;5066520;28;20240;-72
2022/02/09 20:37:20;;;;;;;4.63;4.22;;;7.20;96.80;;;;;;5080949;28;20645;-72
2022/02/09 20:39:57;;;;;;;4.68;4.28;;;7.10;97.10;;;;;;5086134;28;20380;-71
2022/02/09 20:42:25;;;;;;;5.00;4.50;;;7.10;97.20;;;;;;5067293;28;20225;-74
2022/02/09 20:44:58;;;;;;;5.28;4.78;;;7.10;97.20;;;;;;5065841;28;20268;-75
2022/02/09 20:47:27;;;;;;;5.55;5.05;;;7.10;97.30;;;;;;5066979;28;20696;-73
2022/02/09 20:49:54;;;;;;;4.40;4.00;;;7.10;97.30;;;;;;5066306;28;20260;-72
2022/02/09 20:52:21;;;;;;;4.65;4.25;;;7.00;97.40;;;;;;5085674;28;20228;-75
2022/02/09 20:54:48;;;;;;;4.45;4.05;;;7.00;97.40;;;;;;5085546;28;20218;-73
2022/02/09 20:57:15;;;;;;;4.63;3.92;;;7.00;97.40;;;;;;5069520;28;20214;-73
2022/02/09 20:59:48;;;;;;;5.38;3.85;;;6.90;97.40;;;;;;5064672;28;20669;-74
2022/02/09 21:02:40;;;;;;;4.65;4.25;;;6.90;97.40;;;;;;5066665;28;20244;-71
2022/02/09 21:05:27;;;;;;;4.32;3.92;;;6.90;97.60;;;;;;5063639;28;20218;-74
2022/02/09 21:08:06;;;;;;;4.43;4.13;;;6.80;97.40;;;;;;5083171;28;20240;-74
2022/02/09 21:10:42;;;;;;;4.53;3.67;;;6.80;97.50;;;;;;5085089;28;20197;-72
2022/02/09 21:13:16;;;;;;;5.30;4.63;;;6.80;97.50;;;;;;5083308;28;20775;-71
2022/02/09 21:15:55;;;;;;;5.28;4.47;;;6.80;97.60;;;;;;5080317;28;20308;-72
2022/02/09 21:18:57;;;;;;;4.32;3.92;;;6.70;97.70;;;;;;5082188;28;20594;-73
2022/02/09 21:24:54;;;;;;;5.05;4.38;;;6.70;98.00;;;;;;5067774;28;20492;-76
2022/02/09 21:49:11;;;;;;;4.80;4.43;;;6.40;98.70;;;;;;5079716;28;20225;-72
2022/02/09 21:55:38;;;;;;;4.65;4.25;;;6.30;98.90;;;;;;5055424;28;20229;-71
2022/02/09 21:58:09;;;;;;;4.40;4.00;;;6.30;98.90;;;;;;5058450;28;20335;-73
2022/02/09 22:06:32;;;;;;;3.92;3.63;;;6.20;99.20;;;;;;5060195;22;20229;-71
2022/02/09 22:20:14;;;;;;;4.82;4.43;;;6.10;99.40;;;;;;5041452;28;20221;-72
2022/02/09 22:22:52;;;;;;;4.40;4.00;;;6.10;99.50;;;;;;5037055;28;20200;-72
2022/02/09 22:28:08;;;;;;;5.20;4.68;;;6.10;99.40;;;;;;5040592;28;20280;-72
2022/02/09 22:31:18;;;;;;;4.68;4.28;;;6.10;99.50;;;;;;5040503;28;20203;-73
2022/02/09 22:50:12;;;;;;;3.72;3.42;;;5.70;99.80;;;;;;5042358;28;20248;-72
2022/02/09 22:55:27;;;;;;;3.67;3.38;;;5.70;99.80;;;;;;5037387;28;20221;-71
2022/02/09 22:57:57;;;;;;;3.70;3.40;;;5.70;99.90;;;;;;5038272;28;20226;-72
2022/02/09 23:01:07;;;;;;;3.58;3.38;;;5.60;99.90;;;;;;5042396;28;20192;-73
2022/02/09 23:03:50;;;;;;;5.20;4.70;;;5.60;99.90;;;;;;5013926;28;20795;-74
2022/02/09 23:06:32;;;;;;;8.35;6.35;;;5.60;99.90;;;;;;5044812;28;20227;-72
2022/02/09 23:12:02;;;;;;;9.15;6.32;;;5.50;99.90;;;;;;5057633;28;20209;-73
2022/02/09 23:14:47;;;;;;;8.50;6.80;;;5.50;99.90;;;;;;5064602;28;20217;-73
2022/02/09 23:26:15;;;;;;;6.53;5.15;;;5.50;99.90;;;;;;5045783;28;20838;-74
2022/02/09 23:54:06;;;;;;;3.55;3.25;;;5.20;99.90;;;;;;5048562;28;20283;-73
2022/02/09 23:57:01;;;;;;;3.42;3.22;;;5.20;99.90;;;;;;5059850;28;20224;-74
